createdAt,value
2018-09-08T00:02:13.012Z,82.70
2018-09-08T00:04:41.937Z,82.80
2018-09-08T00:07:17.390Z,82.50
2018-09-08T00:09:46.196Z,82.60
2018-09-08T00:12:15.189Z,82.60
2018-09-08T00:14:43.312Z,81.90
2018-09-08T00:17:17.360Z,82.00
2018-09-08T00:19:52.034Z,81.60
2018-09-08T00:22:26.526Z,82.00
2018-09-08T00:25:04.192Z,81.30
2018-09-08T00:27:39.065Z,82.20
2018-09-08T00:30:09.667Z,82.70
2018-09-08T00:32:39.692Z,83.90
2018-09-08T00:35:08.670Z,84.10
2018-09-08T00:37:37.320Z,83.80
2018-09-08T00:40:07.821Z,84.60
2018-09-08T00:42:36.903Z,85.70
2018-09-08T00:45:06.944Z,84.80
2018-09-08T00:47:36.326Z,84.80
2018-09-08T00:50:05.724Z,85.30
2018-09-08T00:52:34.914Z,84.80
2018-09-08T00:55:03.824Z,84.50
2018-09-08T00:57:32.873Z,84.20
2018-09-08T01:00:01.349Z,84.00
2018-09-08T01:02:31.189Z,84.20
2018-09-08T01:04:59.945Z,84.50
2018-09-08T01:07:30.580Z,84.10
2018-09-08T01:10:02.150Z,84.00
2018-09-08T01:12:31.782Z,84.00
2018-09-08T01:15:00.812Z,84.10
2018-09-08T01:17:29.673Z,84.00
2018-09-08T01:19:59.277Z,84.40
2018-09-08T01:22:29.724Z,84.00
2018-09-08T01:24:58.389Z,84.10
2018-09-08T01:27:27.368Z,84.20
2018-09-08T01:29:56.188Z,83.80
2018-09-08T01:32:24.623Z,83.70
2018-09-08T01:34:54.089Z,83.50
2018-09-08T01:37:22.549Z,83.40
2018-09-08T01:39:51.786Z,83.20
2018-09-08T01:42:23.779Z,83.40
2018-09-08T01:44:52.320Z,83.30
2018-09-08T01:47:21.346Z,83.80
2018-09-08T01:49:50.356Z,83.60
2018-09-08T01:52:19.908Z,83.80
2018-09-08T01:54:49.248Z,83.80
2018-09-08T01:57:18.666Z,83.10
2018-09-08T01:59:48.724Z,83.60
2018-09-08T02:02:17.688Z,83.80
2018-09-08T02:04:46.361Z,83.80
2018-09-08T02:07:15.450Z,83.80
2018-09-08T02:09:44.196Z,83.90
2018-09-08T02:12:13.365Z,83.60
2018-09-08T02:14:41.892Z,83.30
2018-09-08T02:17:11.185Z,83.60
2018-09-08T02:19:39.544Z,83.40
2018-09-08T02:22:09.881Z,83.20
2018-09-08T02:24:38.116Z,83.50
2018-09-08T02:27:07.147Z,83.20
2018-09-08T02:29:35.834Z,83.20
2018-09-08T02:32:04.584Z,83.20
2018-09-08T02:34:34.666Z,83.40
2018-09-08T02:37:03.402Z,83.50
2018-09-08T02:39:32.314Z,83.20
2018-09-08T02:42:01.749Z,83.30
2018-09-08T02:44:31.363Z,83.40
2018-09-08T02:47:00.946Z,83.20
2018-09-08T02:49:42.686Z,83.40
2018-09-08T02:52:11.524Z,83.50
2018-09-08T02:54:39.544Z,83.50
2018-09-08T02:57:07.639Z,83.60
2018-09-08T02:59:36.904Z,83.40
2018-09-08T03:02:04.492Z,83.50
2018-09-08T03:04:33.517Z,83.50
2018-09-08T03:07:05.648Z,83.60
2018-09-08T03:09:34.133Z,83.80
2018-09-08T03:12:02.485Z,84.00
2018-09-08T03:14:30.272Z,84.20
2018-09-08T03:16:58.629Z,84.20
2018-09-08T03:19:25.870Z,84.00
2018-09-08T03:21:54.366Z,83.80
2018-09-08T03:24:22.169Z,84.10
2018-09-08T03:26:49.970Z,84.10
2018-09-08T03:29:18.434Z,84.20
2018-09-08T03:31:46.141Z,84.10
2018-09-08T03:34:13.862Z,84.00
2018-09-08T03:36:41.989Z,84.10
2018-09-08T03:39:09.767Z,84.20
2018-09-08T03:41:37.937Z,84.20
2018-09-08T03:44:06.579Z,84.20
2018-09-08T03:46:34.194Z,84.20
2018-09-08T03:49:01.671Z,84.30
2018-09-08T03:51:29.942Z,84.40
2018-09-08T03:53:57.919Z,84.40
2018-09-08T03:56:27.347Z,84.40
2018-09-08T03:58:55.511Z,84.80
2018-09-08T04:01:23.035Z,84.80
2018-09-08T04:03:51.292Z,84.70
2018-09-08T04:06:20.061Z,85.00
2018-09-08T04:08:49.092Z,84.80
2018-09-08T04:11:19.045Z,85.00
2018-09-08T04:13:47.598Z,85.00
2018-09-08T04:16:16.537Z,84.90
2018-09-08T04:18:45.603Z,85.20
2018-09-08T04:21:14.149Z,85.40
2018-09-08T04:23:42.888Z,85.00
2018-09-08T04:26:11.999Z,85.40
2018-09-08T04:28:41.664Z,85.20
2018-09-08T04:31:10.670Z,84.80
2018-09-08T04:33:40.311Z,85.20
2018-09-08T04:36:09.918Z,84.80
2018-09-08T04:38:38.977Z,85.10
2018-09-08T04:41:08.120Z,84.80
2018-09-08T04:43:38.081Z,84.90
2018-09-08T04:46:08.033Z,85.00
2018-09-08T04:48:37.451Z,85.00
2018-09-08T04:51:06.470Z,85.30
2018-09-08T04:53:35.068Z,85.00
2018-09-08T04:56:03.776Z,85.00
2018-09-08T04:58:32.797Z,84.80
2018-09-08T05:01:01.953Z,85.10
2018-09-08T05:03:30.933Z,85.30
2018-09-08T05:05:59.640Z,85.00
2018-09-08T05:08:28.390Z,85.00
2018-09-08T05:11:00.724Z,85.00
2018-09-08T05:13:30.074Z,85.00
2018-09-08T05:15:59.323Z,85.10
2018-09-08T05:18:28.416Z,85.10
2018-09-08T05:20:57.102Z,84.80
2018-09-08T05:23:26.142Z,85.20
2018-09-08T05:25:56.553Z,84.60
2018-09-08T05:28:24.787Z,85.30
2018-09-08T05:32:18.464Z,84.70
2018-09-08T05:34:47.396Z,85.70
2018-09-08T05:37:16.208Z,84.90
2018-09-08T05:39:46.683Z,84.80
2018-09-08T05:42:15.728Z,85.20
2018-09-08T05:44:44.651Z,85.00
2018-09-08T05:47:13.896Z,85.00
2018-09-08T05:49:42.815Z,85.30
2018-09-08T05:52:11.825Z,85.20
2018-09-08T05:54:40.792Z,85.00
2018-09-08T05:57:09.719Z,85.00
2018-09-08T05:59:38.778Z,85.20
2018-09-08T06:02:08.849Z,84.90
2018-09-08T06:04:37.508Z,84.80
2018-09-08T06:07:06.672Z,85.00
2018-09-08T06:09:35.864Z,85.30
2018-09-08T06:12:05.400Z,85.40
2018-09-08T06:14:34.335Z,85.20
2018-09-08T06:17:04.185Z,85.30
2018-09-08T06:20:57.575Z,85.70
2018-09-08T06:23:28.144Z,85.40
2018-09-08T06:25:56.560Z,85.30
2018-09-08T06:28:25.610Z,85.20
2018-09-08T06:30:54.745Z,85.10
2018-09-08T06:33:23.686Z,85.30
2018-09-08T06:35:52.468Z,84.90
2018-09-08T06:38:21.348Z,85.10
2018-09-08T06:40:50.548Z,84.90
2018-09-08T06:43:20.468Z,85.30
2018-09-08T06:45:50.041Z,84.20
2018-09-08T06:48:18.714Z,83.60
2018-09-08T06:50:47.732Z,81.90
2018-09-08T06:53:16.135Z,81.20
2018-09-08T06:55:45.074Z,81.90
2018-09-08T06:58:14.134Z,80.80
2018-09-08T07:00:43.162Z,81.40
2018-09-08T07:03:11.984Z,80.20
2018-09-08T07:05:40.957Z,80.30
2018-09-08T07:08:09.965Z,80.50
2018-09-08T07:10:39.425Z,81.30
2018-09-08T07:13:08.245Z,79.60
2018-09-08T07:15:37.353Z,80.70
2018-09-08T07:18:06.276Z,80.00
2018-09-08T07:20:35.769Z,80.40
2018-09-08T07:23:05.384Z,80.10
2018-09-08T07:25:34.067Z,80.30
2018-09-08T07:28:02.960Z,78.70
2018-09-08T07:30:34.965Z,78.90
2018-09-08T07:33:04.765Z,77.70
2018-09-08T07:35:33.725Z,76.90
2018-09-08T07:38:17.464Z,77.30
2018-09-08T07:40:53.697Z,77.70
2018-09-08T07:43:22.400Z,77.20
2018-09-08T07:45:52.200Z,76.80
2018-09-08T07:48:30.496Z,77.40
2018-09-08T07:51:15.092Z,76.60
2018-09-08T07:53:48.727Z,76.20
2018-09-08T07:56:40.800Z,76.40
2018-09-08T07:59:15.355Z,77.30
2018-09-08T08:04:45.358Z,77.70
2018-09-08T08:07:16.560Z,77.70
2018-09-08T08:09:55.065Z,77.70
2018-09-08T08:12:35.265Z,78.30
2018-09-08T08:15:04.244Z,76.80
2018-09-08T08:17:38.969Z,77.60
2018-09-08T08:20:08.020Z,77.60
2018-09-08T08:22:42.265Z,78.10
2018-09-08T08:25:12.523Z,77.50
2018-09-08T08:27:41.042Z,76.60
2018-09-08T08:30:23.042Z,78.50
2018-09-08T08:32:52.375Z,77.10
2018-09-08T08:35:23.316Z,77.30
2018-09-08T08:37:53.008Z,76.70
2018-09-08T08:40:27.419Z,76.60
2018-09-08T08:42:58.892Z,75.50
2018-09-08T08:45:28.863Z,74.80
2018-09-08T08:48:05.200Z,74.50
2018-09-08T08:50:45.790Z,74.80
2018-09-08T08:53:27.561Z,75.10
2018-09-08T08:55:56.320Z,74.40
2018-09-08T08:58:24.711Z,73.70
2018-09-08T09:00:54.560Z,72.90
2018-09-08T09:03:23.488Z,74.10
2018-09-08T09:07:17.096Z,74.20
2018-09-08T09:09:51.018Z,74.30
2018-09-08T09:12:19.326Z,73.60
2018-09-08T09:14:48.087Z,72.40
2018-09-08T09:17:16.993Z,71.40
2018-09-08T09:19:57.764Z,72.50
2018-09-08T09:22:38.412Z,72.10
2018-09-08T09:25:07.948Z,71.80
2018-09-08T09:27:44.187Z,71.30
2018-09-08T09:30:13.465Z,72.40
2018-09-08T09:32:42.948Z,73.10
2018-09-08T09:35:14.241Z,72.30
2018-09-08T09:37:42.932Z,70.60
2018-09-08T09:40:12.794Z,71.70
2018-09-08T09:42:41.952Z,71.40
2018-09-08T09:45:11.517Z,71.30
2018-09-08T09:47:40.012Z,69.80
2018-09-08T09:50:09.969Z,68.70
2018-09-08T09:52:39.365Z,71.20
2018-09-08T09:55:08.252Z,69.50
2018-09-08T09:57:37.105Z,69.10
2018-09-08T10:00:07.404Z,70.30
2018-09-08T10:03:07.158Z,70.30
2018-09-08T10:05:36.368Z,69.80
2018-09-08T10:08:05.010Z,70.00
2018-09-08T10:10:34.117Z,69.00
2018-09-08T10:13:03.017Z,70.00
2018-09-08T10:15:32.331Z,68.50
2018-09-08T10:18:01.204Z,68.70
2018-09-08T10:20:30.333Z,69.80
2018-09-08T10:22:59.328Z,67.60
2018-09-08T10:25:28.774Z,65.00
2018-09-08T10:27:59.933Z,63.70
2018-09-08T10:30:29.119Z,65.10
2018-09-08T10:32:59.071Z,63.20
2018-09-08T10:35:27.760Z,62.70
2018-09-08T10:37:56.337Z,64.00
2018-09-08T10:40:25.083Z,65.30
2018-09-08T10:42:55.157Z,64.50
2018-09-08T10:45:24.044Z,64.60
2018-09-08T10:47:53.660Z,63.60
2018-09-08T10:50:22.389Z,66.20
2018-09-08T10:52:51.095Z,64.10
2018-09-08T10:55:19.919Z,65.70
2018-09-08T10:57:48.630Z,65.00
2018-09-08T11:00:17.540Z,64.90
2018-09-08T11:02:46.477Z,64.20
2018-09-08T11:05:15.176Z,63.90
2018-09-08T11:07:44.057Z,66.80
2018-09-08T11:10:12.379Z,64.80
2018-09-08T11:12:42.832Z,61.60
2018-09-08T11:15:11.740Z,62.70
2018-09-08T11:17:41.058Z,61.90
2018-09-08T11:20:10.064Z,61.80
2018-09-08T11:22:38.910Z,64.80
2018-09-08T11:25:07.993Z,61.20
2018-09-08T11:27:36.804Z,64.80
2018-09-08T11:30:06.454Z,62.80
2018-09-08T11:32:35.400Z,62.60
2018-09-08T11:35:04.328Z,62.10
2018-09-08T11:37:33.365Z,61.10
2018-09-08T11:40:05.338Z,61.50
2018-09-08T11:42:34.146Z,61.70
2018-09-08T11:45:02.765Z,64.70
2018-09-08T11:47:31.628Z,63.40
2018-09-08T11:50:00.369Z,62.00
2018-09-08T11:52:29.203Z,63.30
2018-09-08T11:54:57.963Z,61.20
2018-09-08T11:57:26.907Z,63.40
2018-09-08T11:59:56.622Z,60.60
2018-09-08T12:02:25.221Z,62.10
2018-09-08T12:04:54.682Z,60.60
2018-09-08T12:07:23.292Z,59.80
2018-09-08T12:09:52.009Z,63.40
2018-09-08T12:12:20.813Z,61.60
2018-09-08T12:14:51.290Z,62.80
2018-09-08T12:17:20.428Z,62.40
2018-09-08T12:19:50.248Z,62.80
2018-09-08T12:22:18.910Z,62.70
2018-09-08T12:24:47.240Z,63.20
2018-09-08T12:27:16.196Z,63.70
2018-09-08T12:29:45.140Z,63.70
2018-09-08T12:32:13.821Z,65.00
2018-09-08T12:34:42.909Z,64.40
2018-09-08T12:37:11.921Z,62.50
2018-09-08T12:39:40.568Z,64.20
2018-09-08T12:42:09.503Z,64.10
2018-09-08T12:44:38.253Z,62.40
2018-09-08T12:47:07.070Z,62.60
2018-09-08T12:49:35.984Z,65.60
2018-09-08T12:52:05.166Z,63.80
2018-09-08T12:54:34.128Z,65.00
2018-09-08T12:57:02.437Z,64.20
2018-09-08T12:59:31.247Z,65.00
2018-09-08T13:02:00.320Z,65.10
2018-09-08T13:04:29.056Z,65.60
2018-09-08T13:06:57.692Z,63.30
2018-09-08T13:09:26.897Z,64.70
2018-09-08T13:11:55.857Z,65.70
2018-09-08T13:14:24.391Z,65.10
2018-09-08T13:16:54.444Z,64.70
2018-09-08T13:19:22.980Z,65.10
2018-09-08T13:21:51.785Z,65.20
2018-09-08T13:24:21.511Z,66.60
2018-09-08T13:26:50.361Z,66.50
2018-09-08T13:29:21.652Z,66.70
2018-09-08T13:31:51.188Z,66.50
2018-09-08T13:34:19.708Z,66.50
2018-09-08T13:36:48.548Z,67.90
2018-09-08T13:39:17.373Z,67.40
2018-09-08T13:41:45.676Z,68.50
2018-09-08T13:44:16.613Z,68.10
2018-09-08T13:46:46.806Z,68.80
2018-09-08T13:49:15.785Z,68.70
2018-09-08T13:51:44.885Z,68.50
2018-09-08T13:54:14.209Z,68.20
2018-09-08T13:56:43.031Z,69.20
2018-09-08T13:59:12.858Z,68.80
2018-09-08T14:01:41.557Z,68.70
2018-09-08T14:04:10.591Z,69.30
2018-09-08T14:06:39.484Z,68.00
2018-09-08T14:09:08.389Z,69.00
2018-09-08T14:11:37.686Z,69.50
2018-09-08T14:14:06.280Z,69.50
2018-09-08T14:16:34.750Z,69.20
2018-09-08T14:19:03.417Z,68.50
2018-09-08T14:21:32.344Z,69.00
2018-09-08T14:24:01.470Z,68.30
2018-09-08T14:26:30.089Z,69.30
2018-09-08T14:28:58.942Z,69.00
2018-09-08T14:31:27.845Z,68.40
2018-09-08T14:33:56.660Z,69.00
2018-09-08T14:36:25.774Z,69.00
2018-09-08T14:38:54.399Z,69.20
2018-09-08T14:41:23.243Z,69.50
2018-09-08T14:43:52.217Z,69.90
2018-09-08T14:46:21.066Z,70.30
2018-09-08T14:48:49.962Z,70.50
2018-09-08T14:51:18.788Z,69.80
2018-09-08T14:53:48.832Z,69.80
2018-09-08T14:56:18.146Z,70.10
2018-09-08T14:58:47.086Z,70.10
2018-09-08T15:01:15.872Z,70.40
2018-09-08T15:03:44.388Z,70.60
2018-09-08T15:06:13.306Z,70.50
2018-09-08T15:08:42.122Z,70.80
2018-09-08T15:11:11.094Z,70.40
2018-09-08T15:13:40.824Z,71.30
2018-09-08T15:16:09.728Z,71.70
2018-09-08T15:18:38.544Z,71.90
2018-09-08T15:21:07.472Z,72.20
2018-09-08T15:23:36.188Z,72.30
2018-09-08T15:26:07.883Z,73.00
2018-09-08T15:28:36.562Z,73.40
2018-09-08T15:31:05.499Z,74.70
2018-09-08T15:33:34.329Z,75.00
2018-09-08T15:36:03.089Z,75.10
2018-09-08T15:38:33.013Z,75.20
2018-09-08T15:41:02.021Z,75.40
2018-09-08T15:43:31.044Z,75.10
2018-09-08T15:46:03.172Z,75.40
2018-09-08T15:48:32.145Z,75.20
2018-09-08T15:51:06.445Z,75.10
2018-09-08T15:53:34.768Z,75.10
2018-09-08T15:56:03.497Z,75.00
2018-09-08T15:58:32.774Z,75.60
2018-09-08T16:01:04.663Z,75.30
2018-09-08T16:03:36.457Z,75.30
2018-09-08T16:06:06.289Z,74.80
2018-09-08T16:08:35.173Z,74.80
2018-09-08T16:11:04.220Z,74.40
2018-09-08T16:13:33.171Z,74.10
2018-09-08T16:16:02.148Z,73.70
2018-09-08T16:18:31.054Z,73.90
2018-09-08T16:21:00.783Z,74.20
2018-09-08T16:23:35.609Z,73.90
2018-09-08T16:26:07.101Z,74.20
2018-09-08T16:28:38.829Z,74.10
2018-09-08T16:31:07.369Z,74.10
2018-09-08T16:33:36.021Z,74.10
2018-09-08T16:36:05.357Z,74.10
2018-09-08T16:38:49.978Z,74.10
2018-09-08T16:41:19.497Z,73.60
2018-09-08T16:43:48.392Z,73.80
2018-09-08T16:46:17.454Z,73.30
2018-09-08T16:48:46.577Z,73.90
2018-09-08T16:51:15.398Z,73.80
2018-09-08T16:53:44.512Z,73.30
2018-09-08T16:56:14.514Z,74.00
2018-09-08T16:58:42.853Z,73.80
2018-09-08T17:01:11.561Z,73.50
2018-09-08T17:03:40.456Z,73.40
2018-09-08T17:06:09.077Z,73.40
2018-09-08T17:08:38.149Z,72.90
2018-09-08T17:11:06.908Z,73.60
2018-09-08T17:13:35.772Z,73.00
2018-09-08T17:16:05.013Z,73.70
2018-09-08T17:18:34.088Z,73.50
2018-09-08T17:21:03.813Z,73.40
2018-09-08T17:23:32.745Z,73.40
2018-09-08T17:26:01.782Z,73.80
2018-09-08T17:28:30.517Z,74.60
2018-09-08T17:30:59.230Z,73.90
2018-09-08T17:33:28.161Z,73.80
2018-09-08T17:35:57.917Z,73.80
2018-09-08T17:38:26.972Z,73.80
2018-09-08T17:40:55.971Z,74.20
2018-09-08T17:43:24.497Z,74.10
2018-09-08T17:45:53.273Z,73.90
2018-09-08T17:48:21.922Z,73.90
2018-09-08T17:50:51.005Z,74.20
2018-09-08T17:53:19.811Z,74.60
2018-09-08T17:55:48.757Z,75.00
2018-09-08T17:58:17.812Z,74.50
2018-09-08T18:00:46.350Z,74.60
2018-09-08T18:03:15.333Z,74.70
2018-09-08T18:05:44.300Z,74.60
2018-09-08T18:08:17.526Z,74.80
2018-09-08T18:10:46.545Z,75.20
2018-09-08T18:13:15.579Z,75.00
2018-09-08T18:15:44.491Z,75.10
2018-09-08T18:18:13.406Z,75.10
2018-09-08T18:20:42.024Z,75.40
2018-09-08T18:23:11.007Z,75.40
2018-09-08T18:25:39.785Z,75.50
2018-09-08T18:28:08.584Z,75.60
2018-09-08T18:30:37.610Z,75.60
2018-09-08T18:33:06.436Z,75.60
2018-09-08T18:35:35.265Z,75.60
2018-09-08T18:38:03.910Z,75.70
2018-09-08T18:40:32.675Z,75.70
2018-09-08T18:43:01.636Z,75.90
2018-09-08T18:45:30.709Z,75.90
2018-09-08T18:47:59.384Z,75.80
2018-09-08T18:50:28.267Z,75.90
2018-09-08T18:52:57.172Z,75.70
2018-09-08T18:55:26.137Z,76.00
2018-09-08T18:57:54.928Z,75.70
2018-09-08T19:00:23.802Z,76.20
2018-09-08T19:02:52.469Z,76.20
2018-09-08T19:05:21.358Z,76.10
2018-09-08T19:07:50.380Z,76.10
2018-09-08T19:10:19.088Z,76.10
2018-09-08T19:12:47.909Z,76.20
2018-09-08T19:15:17.743Z,75.90
2018-09-08T19:17:46.437Z,76.20
2018-09-08T19:20:20.353Z,76.10
2018-09-08T19:22:48.902Z,76.30
2018-09-08T19:25:17.608Z,76.10
2018-09-08T19:27:46.267Z,76.40
2018-09-08T19:30:15.083Z,76.50
2018-09-08T19:32:43.881Z,76.60
2018-09-08T19:35:18.284Z,76.30
2018-09-08T19:37:46.512Z,76.50
2018-09-08T19:40:20.737Z,76.40
2018-09-08T19:42:49.083Z,76.60
2018-09-08T19:45:17.894Z,76.40
2018-09-08T19:47:51.953Z,76.60
2018-09-08T19:50:20.853Z,76.40
2018-09-08T19:52:54.334Z,76.50
2018-09-08T19:55:22.752Z,76.90
2018-09-08T19:57:56.995Z,76.90
2018-09-08T20:00:25.316Z,76.90
2018-09-08T20:02:54.132Z,76.90
2018-09-08T20:05:23.325Z,77.10
2018-09-08T20:07:51.864Z,77.20
2018-09-08T20:10:20.714Z,77.00
2018-09-08T20:12:49.242Z,76.90
2018-09-08T20:15:17.892Z,77.70
2018-09-08T20:17:46.777Z,76.90
2018-09-08T20:20:15.779Z,76.80
2018-09-08T20:22:44.381Z,76.90
2018-09-08T20:25:12.831Z,77.00
2018-09-08T20:27:41.544Z,77.20
2018-09-08T20:30:10.500Z,77.10
2018-09-08T20:32:39.036Z,77.00
2018-09-08T20:35:07.827Z,76.90
2018-09-08T20:37:36.649Z,76.80
2018-09-08T20:40:05.914Z,76.90
2018-09-08T20:42:34.343Z,77.00
2018-09-08T20:45:03.540Z,76.80
2018-09-08T20:47:31.950Z,77.10
2018-09-08T20:50:00.776Z,77.10
2018-09-08T20:52:29.440Z,77.10
2018-09-08T20:54:58.261Z,77.10
2018-09-08T20:57:27.090Z,76.90
2018-09-08T20:59:56.175Z,76.80
2018-09-08T21:02:24.693Z,76.80
2018-09-08T21:04:54.410Z,76.90
2018-09-08T21:07:23.313Z,76.80
2018-09-08T21:09:52.221Z,76.90
2018-09-08T21:12:21.004Z,76.70
2018-09-08T21:14:50.861Z,76.80
2018-09-08T21:17:19.788Z,76.80
2018-09-08T21:19:48.740Z,76.80
2018-09-08T21:22:17.474Z,76.90
2018-09-08T21:24:46.312Z,76.90
2018-09-08T21:27:14.892Z,77.00
2018-09-08T21:29:44.001Z,77.00
2018-09-08T21:32:13.110Z,77.00
2018-09-08T21:34:43.040Z,76.90
2018-09-08T21:37:12.084Z,76.80
2018-09-08T21:39:40.735Z,76.90
2018-09-08T21:42:09.680Z,76.90
2018-09-08T21:44:38.488Z,76.80
2018-09-08T21:47:07.501Z,76.90
2018-09-08T21:49:36.474Z,76.90
2018-09-08T21:52:05.272Z,77.00
2018-09-08T21:54:34.320Z,77.10
2018-09-08T21:57:03.172Z,77.10
2018-09-08T21:59:32.325Z,77.10
2018-09-08T22:02:01.040Z,77.10
2018-09-08T22:04:29.884Z,77.30
2018-09-08T22:06:58.780Z,77.10
2018-09-08T22:09:27.587Z,77.20
2018-09-08T22:11:56.589Z,77.00
2018-09-08T22:14:25.832Z,77.20
2018-09-08T22:16:54.234Z,77.10
2018-09-08T22:19:23.050Z,77.30
2018-09-08T22:21:51.876Z,77.30
2018-09-08T22:24:20.760Z,77.40
2018-09-08T22:26:50.684Z,77.20
2018-09-08T22:29:19.206Z,77.30
2018-09-08T22:31:48.353Z,77.30
2018-09-08T22:34:17.414Z,77.30
2018-09-08T22:36:46.216Z,77.50
2018-09-08T22:39:15.229Z,77.50
2018-09-08T22:41:44.304Z,77.60
2018-09-08T22:44:12.920Z,77.60
2018-09-08T22:46:41.780Z,77.60
2018-09-08T22:49:11.630Z,78.00
2018-09-08T22:51:40.148Z,77.50
2018-09-08T22:54:08.866Z,77.80
2018-09-08T22:56:37.610Z,78.00
2018-09-08T22:59:06.501Z,77.90
2018-09-08T23:01:35.108Z,77.70
2018-09-08T23:04:03.937Z,77.80
2018-09-08T23:06:32.882Z,78.20
2018-09-08T23:09:01.790Z,78.70
2018-09-08T23:11:30.808Z,78.30
2018-09-08T23:13:59.716Z,78.60
2018-09-08T23:16:27.903Z,78.50
2018-09-08T23:18:56.937Z,78.50
2018-09-08T23:21:25.839Z,78.30
2018-09-08T23:23:54.801Z,78.60
2018-09-08T23:26:23.624Z,78.90
2018-09-08T23:28:52.617Z,78.60
2018-09-08T23:31:21.213Z,78.70
2018-09-08T23:33:50.269Z,78.80
2018-09-08T23:36:19.593Z,78.70
2018-09-08T23:38:48.616Z,78.90
2018-09-08T23:41:17.649Z,78.80
2018-09-08T23:43:47.521Z,78.80
2018-09-08T23:46:16.365Z,79.20
2018-09-08T23:48:45.211Z,78.90
2018-09-08T23:51:14.238Z,78.80
2018-09-08T23:53:43.154Z,79.20
